createdAt,value
2023-06-10T00:00:14.144Z,51.78
2023-06-10T00:01:05.738Z,52.13
2023-06-10T00:02:01.005Z,51.93
2023-06-10T00:02:52.245Z,51.93
2023-06-10T00:03:44.476Z,51.95
2023-06-10T00:04:37.312Z,52.15
2023-06-10T00:05:31.149Z,51.89
2023-06-10T00:06:25.728Z,51.83
2023-06-10T00:07:16.670Z,51.97
2023-06-10T00:08:11.735Z,51.89
2023-06-10T00:09:06.336Z,51.94
2023-06-10T00:09:58.384Z,51.95
2023-06-10T00:10:49.029Z,52.12
2023-06-10T00:11:40.373Z,52.64
2023-06-10T00:12:32.285Z,52.51
2023-06-10T00:13:22.900Z,52.86
2023-06-10T00:14:13.707Z,53.02
2023-06-10T00:15:06.595Z,53.27
2023-06-10T00:15:57.602Z,53.89
2023-06-10T00:16:48.286Z,54.04
2023-06-10T00:17:40.924Z,54.44
2023-06-10T00:18:32.353Z,54.32
2023-06-10T00:19:26.664Z,54.30
2023-06-10T00:20:17.610Z,54.90
2023-06-10T00:21:08.528Z,54.75
2023-06-10T00:21:59.352Z,54.62
2023-06-10T00:22:50.769Z,54.45
2023-06-10T00:23:42.261Z,54.82
2023-06-10T00:24:32.986Z,55.07
2023-06-10T00:25:23.890Z,55.03
2023-06-10T00:26:15.041Z,55.16
2023-06-10T00:27:08.293Z,55.45
2023-06-10T00:28:01.472Z,55.63
2023-06-10T00:28:53.629Z,55.51
2023-06-10T00:29:48.275Z,55.61
2023-06-10T00:30:39.448Z,55.74
2023-06-10T00:31:31.523Z,56.20
2023-06-10T00:32:22.191Z,56.43
2023-06-10T00:33:12.846Z,55.93
2023-06-10T00:34:03.753Z,55.75
2023-06-10T00:34:56.203Z,56.08
2023-06-10T00:35:47.242Z,55.86
2023-06-10T00:36:38.310Z,56.08
2023-06-10T00:37:30.278Z,56.39
2023-06-10T00:38:21.483Z,56.20
2023-06-10T00:39:12.310Z,57.02
2023-06-10T00:40:04.381Z,57.02
2023-06-10T00:40:56.489Z,56.75
2023-06-10T00:41:48.696Z,56.65
2023-06-10T00:42:39.544Z,56.56
2023-06-10T00:43:30.339Z,55.84
2023-06-10T00:44:21.129Z,55.42
2023-06-10T00:45:12.838Z,55.11
2023-06-10T00:46:04.011Z,54.98
2023-06-10T00:46:56.942Z,55.01
2023-06-10T00:47:47.860Z,54.83
2023-06-10T00:48:40.149Z,55.04
2023-06-10T00:49:30.962Z,54.93
2023-06-10T00:50:21.892Z,54.77
2023-06-10T00:51:13.151Z,55.62
2023-06-10T00:52:07.033Z,55.77
2023-06-10T00:53:00.138Z,55.25
2023-06-10T00:53:51.735Z,55.10
2023-06-10T00:54:42.721Z,55.03
2023-06-10T00:55:33.912Z,55.07
2023-06-10T00:56:24.752Z,54.96
2023-06-10T00:57:16.547Z,54.94
2023-06-10T00:58:08.332Z,55.59
2023-06-10T00:58:59.666Z,55.67
2023-06-10T00:59:50.895Z,55.35
2023-06-10T01:00:41.780Z,56.03
2023-06-10T01:01:33.491Z,56.23
2023-06-10T01:02:26.746Z,55.78
2023-06-10T01:03:18.523Z,55.74
2023-06-10T01:04:13.378Z,55.98
2023-06-10T01:05:04.814Z,56.38
2023-06-10T01:06:05.972Z,55.42
2023-06-10T01:07:16.139Z,55.69
2023-06-10T01:08:22.042Z,55.84
2023-06-10T01:09:22.255Z,56.38
2023-06-10T01:10:25.153Z,56.21
2023-06-10T01:11:24.865Z,56.03
2023-06-10T01:12:26.252Z,56.28
2023-06-10T01:13:19.710Z,57.19
2023-06-10T01:14:10.901Z,56.47
2023-06-10T01:15:04.491Z,56.91
2023-06-10T01:15:57.189Z,56.13
2023-06-10T01:16:49.523Z,55.96
2023-06-10T01:18:03.756Z,55.85
2023-06-10T01:18:55.764Z,55.97
2023-06-10T01:19:56.078Z,55.61
2023-06-10T01:20:47.529Z,55.96
2023-06-10T01:21:38.833Z,55.83
2023-06-10T01:22:29.808Z,55.66
2023-06-10T01:23:20.631Z,55.46
2023-06-10T01:24:12.129Z,55.34
2023-06-10T01:25:07.006Z,55.45
2023-06-10T01:26:06.017Z,55.95
2023-06-10T01:27:01.612Z,55.83
2023-06-10T01:27:52.465Z,56.05
2023-06-10T01:29:09.575Z,56.10
2023-06-10T01:30:09.586Z,55.69
2023-06-10T01:31:19.403Z,55.21
2023-06-10T01:32:22.830Z,55.94
2023-06-10T01:33:19.745Z,56.32
2023-06-10T01:34:14.883Z,56.53
2023-06-10T01:35:09.477Z,55.97
2023-06-10T01:36:04.575Z,56.24
2023-06-10T01:36:57.628Z,55.79
2023-06-10T01:37:51.053Z,56.23
2023-06-10T01:38:45.174Z,56.08
2023-06-10T01:39:36.691Z,56.19
2023-06-10T01:40:27.934Z,56.24
2023-06-10T01:41:22.375Z,56.08
2023-06-10T01:42:13.458Z,56.21
2023-06-10T01:43:04.671Z,55.86
2023-06-10T01:43:56.391Z,56.43
2023-06-10T01:44:47.571Z,55.86
2023-06-10T01:45:38.428Z,56.04
2023-06-10T01:46:29.559Z,55.76
2023-06-10T01:47:20.786Z,55.98
2023-06-10T01:48:12.057Z,55.84
2023-06-10T01:49:02.820Z,56.81
2023-06-10T01:49:53.687Z,57.31
2023-06-10T01:50:45.106Z,57.82
2023-06-10T01:51:35.865Z,57.67
2023-06-10T01:52:27.102Z,57.28
2023-06-10T01:53:19.016Z,58.25
2023-06-10T01:54:11.456Z,58.07
2023-06-10T01:55:02.092Z,58.44
2023-06-10T01:55:52.989Z,59.09
2023-06-10T01:56:43.796Z,59.01
2023-06-10T01:57:35.705Z,58.92
2023-06-10T01:58:27.654Z,58.97
2023-06-10T01:59:18.597Z,58.82
2023-06-10T02:00:11.207Z,58.75
2023-06-10T02:01:09.767Z,59.02
2023-06-10T02:02:01.698Z,58.90
2023-06-10T02:02:52.534Z,59.62
2023-06-10T02:03:43.358Z,59.97
2023-06-10T02:04:33.963Z,60.11
2023-06-10T02:05:26.662Z,60.28
2023-06-10T02:06:17.513Z,60.67
2023-06-10T02:07:08.391Z,60.50
2023-06-10T02:07:59.251Z,59.79
2023-06-10T02:08:50.346Z,60.07
2023-06-10T02:09:41.098Z,60.22
2023-06-10T02:10:32.165Z,60.53
2023-06-10T02:11:23.172Z,60.56
2023-06-10T02:12:16.587Z,61.41
2023-06-10T02:13:09.303Z,60.85
2023-06-10T02:14:00.334Z,60.71
2023-06-10T02:14:51.796Z,60.74
2023-06-10T02:15:43.034Z,60.95
2023-06-10T02:16:33.941Z,61.04
2023-06-10T02:17:24.905Z,60.68
2023-06-10T02:18:16.043Z,61.09
2023-06-10T02:19:07.673Z,61.16
2023-06-10T02:20:00.819Z,61.20
2023-06-10T02:20:51.871Z,61.31
2023-06-10T02:21:42.809Z,61.55
2023-06-10T02:22:34.710Z,61.40
2023-06-10T02:23:25.554Z,61.91
2023-06-10T02:24:16.571Z,62.28
2023-06-10T02:25:08.660Z,62.25
2023-06-10T02:25:59.375Z,62.14
2023-06-10T02:26:50.405Z,62.37
2023-06-10T02:27:41.482Z,62.40
2023-06-10T02:28:33.208Z,62.79
2023-06-10T02:29:23.837Z,63.09
2023-06-10T02:30:15.452Z,63.00
2023-06-10T02:31:06.363Z,63.47
2023-06-10T02:31:57.523Z,63.68
2023-06-10T02:32:48.927Z,63.48
2023-06-10T02:33:41.667Z,63.70
2023-06-10T02:34:33.401Z,63.39
2023-06-10T02:35:25.380Z,63.89
2023-06-10T02:36:17.928Z,63.70
2023-06-10T02:37:08.643Z,63.46
2023-06-10T02:37:59.794Z,63.17
2023-06-10T02:38:51.366Z,64.10
2023-06-10T02:39:42.743Z,64.32
2023-06-10T02:40:35.930Z,64.06
2023-06-10T02:41:27.399Z,64.26
2023-06-10T02:42:19.286Z,63.99
2023-06-10T02:43:10.726Z,64.43
2023-06-10T02:44:01.918Z,64.14
2023-06-10T02:44:52.868Z,64.20
2023-06-10T02:45:58.657Z,64.39
2023-06-10T02:46:49.473Z,64.73
2023-06-10T02:48:04.597Z,64.33
2023-06-10T02:48:56.625Z,64.45
2023-06-10T02:49:49.514Z,64.71
2023-06-10T02:50:41.332Z,64.91
2023-06-10T02:51:40.792Z,65.03
2023-06-10T02:52:32.634Z,65.13
2023-06-10T02:53:24.103Z,65.57
2023-06-10T02:54:20.838Z,65.61
2023-06-10T02:55:12.343Z,65.60
2023-06-10T02:56:06.992Z,66.03
2023-06-10T02:56:57.702Z,65.65
2023-06-10T02:57:51.604Z,66.44
2023-06-10T02:58:44.013Z,65.90
2023-06-10T02:59:37.663Z,66.35
2023-06-10T03:00:29.711Z,66.32
2023-06-10T03:01:21.069Z,66.74
2023-06-10T03:02:29.639Z,66.72
2023-06-10T03:03:23.533Z,66.95
2023-06-10T03:04:30.223Z,66.63
2023-06-10T03:05:27.208Z,66.90
2023-06-10T03:06:20.428Z,66.70
2023-06-10T03:07:13.630Z,66.71
2023-06-10T03:08:04.909Z,66.97
2023-06-10T03:08:58.354Z,66.53
2023-06-10T03:09:49.290Z,66.63
2023-06-10T03:10:40.135Z,66.60
2023-06-10T03:11:32.073Z,66.60
2023-06-10T03:12:23.489Z,66.62
2023-06-10T03:13:15.566Z,66.37
2023-06-10T03:14:06.411Z,66.63
2023-06-10T03:14:57.654Z,66.44
2023-06-10T03:15:48.949Z,66.82
2023-06-10T03:16:43.728Z,66.92
2023-06-10T03:17:34.871Z,66.56
2023-06-10T03:18:29.561Z,66.58
2023-06-10T03:19:22.220Z,67.01
2023-06-10T03:20:16.776Z,66.69
2023-06-10T03:21:09.846Z,67.12
2023-06-10T03:22:11.740Z,67.14
2023-06-10T03:23:07.560Z,67.59
2023-06-10T03:23:59.129Z,67.21
2023-06-10T03:24:52.275Z,67.31
2023-06-10T03:25:43.967Z,67.22
2023-06-10T03:26:39.163Z,66.97
2023-06-10T03:27:32.452Z,66.93
2023-06-10T03:28:25.672Z,66.98
2023-06-10T03:29:16.980Z,67.33
2023-06-10T03:30:09.862Z,67.30
2023-06-10T03:31:02.143Z,66.87
2023-06-10T03:31:56.113Z,67.27
2023-06-10T03:32:47.826Z,67.37
2023-06-10T03:33:40.779Z,67.05
2023-06-10T03:34:31.657Z,67.30
2023-06-10T03:35:23.379Z,67.04
2023-06-10T03:36:14.290Z,67.02
2023-06-10T03:37:05.329Z,66.08
2023-06-10T03:37:56.718Z,65.45
2023-06-10T03:38:48.027Z,64.81
2023-06-10T03:39:38.782Z,64.49
2023-06-10T03:40:32.483Z,63.86
2023-06-10T03:41:23.899Z,63.79
2023-06-10T03:42:15.971Z,62.43
2023-06-10T03:43:06.753Z,62.12
2023-06-10T03:43:57.652Z,61.02
2023-06-10T03:44:48.473Z,60.95
2023-06-10T03:45:39.379Z,61.21
2023-06-10T03:46:30.522Z,60.34
2023-06-10T03:47:21.596Z,61.14
2023-06-10T03:48:13.238Z,61.23
2023-06-10T03:49:10.447Z,60.27
2023-06-10T03:50:02.509Z,59.97
2023-06-10T03:50:53.805Z,59.74
2023-06-10T03:51:46.524Z,60.00
2023-06-10T03:52:39.301Z,61.06
2023-06-10T03:53:30.522Z,61.67
2023-06-10T03:54:21.750Z,60.59
2023-06-10T03:55:14.660Z,59.51
2023-06-10T03:56:08.892Z,59.26
2023-06-10T03:56:59.727Z,59.99
2023-06-10T03:57:51.175Z,59.03
2023-06-10T03:58:44.677Z,58.25
2023-06-10T03:59:53.955Z,58.57
2023-06-10T04:00:46.565Z,58.24
2023-06-10T04:01:38.518Z,57.87
2023-06-10T04:02:29.710Z,57.66
2023-06-10T04:03:22.411Z,58.40
2023-06-10T04:04:17.926Z,59.21
2023-06-10T04:05:09.977Z,58.42
2023-06-10T04:06:01.202Z,59.35
2023-06-10T04:06:52.426Z,58.19
2023-06-10T04:07:47.317Z,57.47
2023-06-10T04:08:38.919Z,57.89
2023-06-10T04:09:29.719Z,57.93
2023-06-10T04:10:21.568Z,56.90
2023-06-10T04:11:12.363Z,56.54
2023-06-10T04:12:03.832Z,55.95
2023-06-10T04:12:55.041Z,55.68
2023-06-10T04:13:47.893Z,55.63
2023-06-10T04:14:39.002Z,54.78
2023-06-10T04:15:33.900Z,54.44
2023-06-10T04:16:29.642Z,53.90
2023-06-10T04:17:21.329Z,53.44
2023-06-10T04:18:12.708Z,53.81
2023-06-10T04:19:03.967Z,53.20
2023-06-10T04:19:55.878Z,52.31
2023-06-10T04:20:47.062Z,52.90
2023-06-10T04:21:38.419Z,53.69
2023-06-10T04:22:29.295Z,52.89
2023-06-10T04:23:20.046Z,53.02
2023-06-10T04:24:11.326Z,53.32
2023-06-10T04:25:02.095Z,53.36
2023-06-10T04:25:52.977Z,54.19
2023-06-10T04:26:44.201Z,54.37
2023-06-10T04:27:34.889Z,54.28
2023-06-10T04:28:28.069Z,53.77
2023-06-10T04:29:18.971Z,53.24
2023-06-10T04:30:10.221Z,54.50
2023-06-10T04:31:02.890Z,54.04
2023-06-10T04:31:54.017Z,53.14
2023-06-10T04:32:45.194Z,53.45
2023-06-10T04:33:39.824Z,52.64
2023-06-10T04:34:31.282Z,53.57
2023-06-10T04:35:22.694Z,53.87
2023-06-10T04:36:13.694Z,53.27
2023-06-10T04:37:05.243Z,52.32
2023-06-10T04:37:56.196Z,52.64
2023-06-10T04:38:47.818Z,53.47
2023-06-10T04:39:40.866Z,53.31
2023-06-10T04:40:32.956Z,53.23
2023-06-10T04:41:26.969Z,52.46
2023-06-10T04:42:18.651Z,53.79
2023-06-10T04:43:09.776Z,54.04
2023-06-10T04:44:01.390Z,56.34
2023-06-10T04:44:53.309Z,56.74
2023-06-10T04:45:46.861Z,55.78
2023-06-10T04:46:37.895Z,54.72
2023-06-10T04:47:29.420Z,53.84
2023-06-10T04:48:20.225Z,54.65
2023-06-10T04:49:12.261Z,54.61
2023-06-10T04:50:04.531Z,55.30
2023-06-10T04:50:55.689Z,55.81
2023-06-10T04:51:46.591Z,55.48
2023-06-10T04:52:37.300Z,56.56
2023-06-10T04:53:29.772Z,57.58
2023-06-10T04:54:20.543Z,57.50
2023-06-10T04:55:12.147Z,56.67
2023-06-10T04:56:03.310Z,57.24
2023-06-10T04:56:55.521Z,57.59
2023-06-10T04:57:46.395Z,57.84
2023-06-10T04:58:37.091Z,58.15
2023-06-10T04:59:27.945Z,59.18
2023-06-10T05:00:19.413Z,59.25
2023-06-10T05:01:10.199Z,57.54
2023-06-10T05:02:01.194Z,56.88
2023-06-10T05:02:54.630Z,57.25
2023-06-10T05:03:45.794Z,57.46
2023-06-10T05:04:37.402Z,56.19
2023-06-10T05:05:28.474Z,55.34
2023-06-10T05:06:19.465Z,55.45
2023-06-10T05:07:10.551Z,56.41
2023-06-10T05:08:01.393Z,56.09
2023-06-10T05:08:52.423Z,56.55
2023-06-10T05:09:43.309Z,55.50
2023-06-10T05:10:35.261Z,55.21
2023-06-10T05:11:26.319Z,55.85
2023-06-10T05:12:17.415Z,55.23
2023-06-10T05:13:08.119Z,57.01
2023-06-10T05:13:59.007Z,56.52
2023-06-10T05:14:49.826Z,55.91
2023-06-10T05:15:41.510Z,54.84
2023-06-10T05:16:32.550Z,56.97
2023-06-10T05:17:24.076Z,56.79
2023-06-10T05:18:15.011Z,55.54
2023-06-10T05:19:08.259Z,55.71
2023-06-10T05:19:59.580Z,54.60
2023-06-10T05:20:50.560Z,54.22
2023-06-10T05:21:41.427Z,53.72
2023-06-10T05:22:32.232Z,55.74
2023-06-10T05:23:23.264Z,54.70
2023-06-10T05:24:13.921Z,55.11
2023-06-10T05:25:04.930Z,55.65
2023-06-10T05:25:56.082Z,53.54
2023-06-10T05:26:46.923Z,54.31
2023-06-10T05:27:39.101Z,54.81
2023-06-10T05:28:29.882Z,55.27
2023-06-10T05:29:20.898Z,56.20
2023-06-10T05:30:12.480Z,54.20
2023-06-10T05:31:03.959Z,52.90
2023-06-10T05:31:54.883Z,53.94
2023-06-10T05:32:46.242Z,53.82
2023-06-10T05:33:36.826Z,54.15
2023-06-10T05:34:27.662Z,54.22
2023-06-10T05:35:18.602Z,55.00
2023-06-10T05:36:11.821Z,55.58
2023-06-10T05:37:03.187Z,54.95
2023-06-10T05:37:54.218Z,55.24
2023-06-10T05:38:45.094Z,55.05
2023-06-10T05:39:38.648Z,55.63
2023-06-10T05:40:29.380Z,54.80
2023-06-10T05:41:20.286Z,55.05
2023-06-10T05:42:11.479Z,54.73
2023-06-10T05:43:02.497Z,55.30
2023-06-10T05:43:53.154Z,54.80
2023-06-10T05:44:44.022Z,54.54
2023-06-10T05:45:34.898Z,55.13
2023-06-10T05:46:25.758Z,54.87
2023-06-10T05:47:16.306Z,54.28
2023-06-10T05:48:07.201Z,54.78
2023-06-10T05:48:58.111Z,55.62
2023-06-10T05:49:50.953Z,54.77
2023-06-10T05:50:43.609Z,54.12
2023-06-10T05:51:34.852Z,54.40
2023-06-10T05:52:25.549Z,54.83
2023-06-10T05:53:16.706Z,54.42
2023-06-10T05:54:07.747Z,55.53
2023-06-10T05:54:58.714Z,55.58
2023-06-10T05:55:49.898Z,55.20
2023-06-10T05:56:40.827Z,55.43
2023-06-10T05:57:31.720Z,56.92
2023-06-10T05:58:22.522Z,56.91
2023-06-10T05:59:13.304Z,57.22
2023-06-10T06:00:05.483Z,55.54
2023-06-10T06:01:03.511Z,55.09
2023-06-10T06:01:54.283Z,54.11
2023-06-10T06:02:45.184Z,53.87
2023-06-10T06:03:36.313Z,54.72
2023-06-10T06:04:27.352Z,55.78
2023-06-10T06:05:18.127Z,55.24
2023-06-10T06:06:08.961Z,56.15
2023-06-10T06:06:59.785Z,55.91
2023-06-10T06:07:50.501Z,56.74
2023-06-10T06:08:41.378Z,57.10
2023-06-10T06:09:32.163Z,55.79
2023-06-10T06:10:22.890Z,53.73
2023-06-10T06:11:14.734Z,55.10
2023-06-10T06:12:07.939Z,55.59
2023-06-10T06:12:58.745Z,55.64
2023-06-10T06:13:52.338Z,56.70
2023-06-10T06:14:45.850Z,55.79
2023-06-10T06:15:36.833Z,54.64
2023-06-10T06:16:27.825Z,54.17
2023-06-10T06:17:18.672Z,53.97
2023-06-10T06:18:09.479Z,54.00
2023-06-10T06:19:00.253Z,53.74
2023-06-10T06:19:51.219Z,53.41
2023-06-10T06:20:42.254Z,52.84
2023-06-10T06:21:32.943Z,52.47
2023-06-10T06:22:23.955Z,51.69
2023-06-10T06:23:14.787Z,51.96
2023-06-10T06:24:06.244Z,53.66
2023-06-10T06:24:57.306Z,53.81
2023-06-10T06:25:48.284Z,53.78
2023-06-10T06:26:39.195Z,55.00
2023-06-10T06:27:30.026Z,56.33
2023-06-10T06:28:22.119Z,57.37
2023-06-10T06:29:13.211Z,56.25
2023-06-10T06:30:04.482Z,55.75
2023-06-10T06:30:59.052Z,55.39
2023-06-10T06:31:50.363Z,54.00
2023-06-10T06:32:41.206Z,53.83
2023-06-10T06:33:32.038Z,53.77
2023-06-10T06:34:22.808Z,53.14
2023-06-10T06:35:13.778Z,53.29
2023-06-10T06:36:04.873Z,54.30
2023-06-10T06:36:55.904Z,54.50
2023-06-10T06:37:47.648Z,54.56
2023-06-10T06:38:43.987Z,57.79
2023-06-10T06:39:35.104Z,57.56
2023-06-10T06:40:25.882Z,58.30
2023-06-10T06:41:16.909Z,57.09
2023-06-10T06:42:08.265Z,56.73
2023-06-10T06:43:19.651Z,55.22
2023-06-10T06:44:21.313Z,55.45
2023-06-10T06:45:17.551Z,57.40
2023-06-10T06:46:08.347Z,57.58
2023-06-10T06:46:59.152Z,58.15
2023-06-10T06:47:49.999Z,58.53
2023-06-10T06:48:40.813Z,59.45
2023-06-10T06:49:31.868Z,59.50
2023-06-10T06:50:23.049Z,59.97
2023-06-10T06:51:14.290Z,59.71
2023-06-10T06:52:05.562Z,59.27
2023-06-10T06:52:56.418Z,59.12
2023-06-10T06:53:47.494Z,60.73
2023-06-10T06:54:38.639Z,60.39
2023-06-10T06:55:29.448Z,59.44
2023-06-10T06:56:20.437Z,60.50
2023-06-10T06:57:11.768Z,60.66
2023-06-10T06:58:05.101Z,60.56
2023-06-10T06:58:58.237Z,61.97
2023-06-10T06:59:49.364Z,62.81
2023-06-10T07:00:40.184Z,60.86
2023-06-10T07:01:31.317Z,60.78
2023-06-10T07:02:22.302Z,59.27
2023-06-10T07:03:13.202Z,59.09
2023-06-10T07:04:04.116Z,58.74
2023-06-10T07:04:57.154Z,58.79
2023-06-10T07:05:48.416Z,58.51
2023-06-10T07:06:39.237Z,58.17
2023-06-10T07:07:30.169Z,57.82
2023-06-10T07:08:21.220Z,57.60
2023-06-10T07:09:12.439Z,57.05
2023-06-10T07:10:03.669Z,56.98
2023-06-10T07:10:55.264Z,57.54
2023-06-10T07:11:46.495Z,58.87
2023-06-10T07:12:37.240Z,61.53
2023-06-10T07:13:28.076Z,59.68
2023-06-10T07:14:18.950Z,58.79
2023-06-10T07:15:10.427Z,59.23
2023-06-10T07:16:01.432Z,58.14
2023-06-10T07:16:52.087Z,57.57
2023-06-10T07:17:43.328Z,58.14
2023-06-10T07:18:35.048Z,58.18
2023-06-10T07:19:25.864Z,59.13
2023-06-10T07:20:16.869Z,61.00
2023-06-10T07:21:07.773Z,60.64
2023-06-10T07:21:58.506Z,60.21
2023-06-10T07:22:49.327Z,58.81
2023-06-10T07:23:43.302Z,57.48
2023-06-10T07:24:34.023Z,57.24
2023-06-10T07:25:24.771Z,57.39
2023-06-10T07:26:15.707Z,59.53
2023-06-10T07:27:08.231Z,58.79
2023-06-10T07:27:58.974Z,58.98
2023-06-10T07:28:49.911Z,60.54
2023-06-10T07:29:41.109Z,61.08
2023-06-10T07:30:31.852Z,60.71
2023-06-10T07:31:22.673Z,60.91
2023-06-10T07:32:13.455Z,60.69
2023-06-10T07:33:04.418Z,60.64
2023-06-10T07:33:55.696Z,60.13
2023-06-10T07:34:46.522Z,59.28
2023-06-10T07:35:37.341Z,58.91
2023-06-10T07:36:29.607Z,58.16
2023-06-10T07:37:20.881Z,58.14
2023-06-10T07:38:11.795Z,56.95
2023-06-10T07:39:02.823Z,56.50
2023-06-10T07:39:53.915Z,56.54
2023-06-10T07:40:44.749Z,57.76
2023-06-10T07:41:36.291Z,57.84
2023-06-10T07:42:27.342Z,56.31
2023-06-10T07:43:18.302Z,56.28
2023-06-10T07:44:09.125Z,56.80
2023-06-10T07:44:59.743Z,56.84
2023-06-10T07:45:50.741Z,56.72
2023-06-10T07:46:41.565Z,57.73
2023-06-10T07:47:34.013Z,56.82
2023-06-10T07:48:25.120Z,56.29
2023-06-10T07:49:16.121Z,56.35
2023-06-10T07:50:07.528Z,56.62
2023-06-10T07:50:58.435Z,57.22
2023-06-10T07:51:49.357Z,57.40
2023-06-10T07:52:40.327Z,57.77
2023-06-10T07:53:31.039Z,59.41
2023-06-10T07:54:21.854Z,59.67
2023-06-10T07:55:12.922Z,59.19
2023-06-10T07:56:03.553Z,58.53
2023-06-10T07:56:54.466Z,59.56
2023-06-10T07:57:45.166Z,58.74
2023-06-10T07:58:38.215Z,57.72
2023-06-10T07:59:29.082Z,58.33
2023-06-10T08:00:20.658Z,57.46
2023-06-10T08:01:11.870Z,57.56
2023-06-10T08:02:02.742Z,57.10
2023-06-10T08:02:53.726Z,56.83
2023-06-10T08:03:45.269Z,56.66
2023-06-10T08:04:36.897Z,56.70
2023-06-10T08:05:27.961Z,56.45
2023-06-10T08:06:18.893Z,55.71
2023-06-10T08:07:09.724Z,56.13
2023-06-10T08:08:04.039Z,55.78
2023-06-10T08:08:54.860Z,55.48
2023-06-10T08:09:45.745Z,54.37
2023-06-10T08:10:36.770Z,54.65
2023-06-10T08:11:29.434Z,54.06
2023-06-10T08:12:21.378Z,54.35
2023-06-10T08:13:12.339Z,54.27
2023-06-10T08:14:03.316Z,54.09
2023-06-10T08:14:54.877Z,54.24
2023-06-10T08:15:46.268Z,54.77
2023-06-10T08:16:37.378Z,54.24
2023-06-10T08:17:28.782Z,53.36
2023-06-10T08:18:19.439Z,53.54
2023-06-10T08:19:10.491Z,52.97
2023-06-10T08:20:02.354Z,53.10
2023-06-10T08:20:53.169Z,53.39
2023-06-10T08:21:44.341Z,53.52
2023-06-10T08:22:35.146Z,53.29
2023-06-10T08:23:26.000Z,52.45
2023-06-10T08:24:19.016Z,52.17
2023-06-10T08:25:10.849Z,52.67
2023-06-10T08:26:02.276Z,52.37
2023-06-10T08:26:53.060Z,52.52
2023-06-10T08:27:44.305Z,52.15
2023-06-10T08:28:35.085Z,51.80
2023-06-10T08:29:26.592Z,52.60
2023-06-10T08:30:17.638Z,53.02
2023-06-10T08:31:08.432Z,53.79
2023-06-10T08:31:59.363Z,53.34
2023-06-10T08:32:50.166Z,52.92
2023-06-10T08:33:40.760Z,53.41
2023-06-10T08:34:34.845Z,52.84
2023-06-10T08:35:25.745Z,53.27
2023-06-10T08:36:16.911Z,52.46
2023-06-10T08:37:08.303Z,52.64
2023-06-10T08:37:59.385Z,53.40
2023-06-10T08:38:50.243Z,53.32
2023-06-10T08:39:40.906Z,53.16
2023-06-10T08:40:31.970Z,52.93
2023-06-10T08:41:25.830Z,53.32
2023-06-10T08:42:37.584Z,52.95
2023-06-10T08:43:31.330Z,54.25
2023-06-10T08:44:31.972Z,53.18
2023-06-10T08:45:24.661Z,52.48
2023-06-10T08:46:16.168Z,53.37
2023-06-10T08:47:19.079Z,52.93
2023-06-10T08:48:12.063Z,52.79
2023-06-10T08:49:08.589Z,53.00
2023-06-10T08:50:05.007Z,53.00
2023-06-10T08:50:58.332Z,52.98
2023-06-10T08:51:52.393Z,52.64
2023-06-10T08:52:45.135Z,51.70
2023-06-10T08:53:38.798Z,51.61
2023-06-10T08:54:33.358Z,52.21
2023-06-10T08:55:33.038Z,52.26
2023-06-10T08:56:27.060Z,51.05
2023-06-10T08:57:21.293Z,50.33
2023-06-10T08:58:14.001Z,50.33
2023-06-10T08:59:05.030Z,50.02
2023-06-10T08:59:57.884Z,51.04
2023-06-10T09:00:48.908Z,51.24
2023-06-10T09:01:40.137Z,50.18
2023-06-10T09:02:32.601Z,50.16
2023-06-10T09:03:25.461Z,50.13
2023-06-10T09:04:19.260Z,50.73
2023-06-10T09:05:11.045Z,50.72
2023-06-10T09:06:05.743Z,50.72
2023-06-10T09:06:57.370Z,51.18
2023-06-10T09:07:52.428Z,50.09
2023-06-10T09:08:44.061Z,50.89
2023-06-10T09:09:36.525Z,50.17
2023-06-10T09:10:28.078Z,50.34
2023-06-10T09:11:19.225Z,51.09
2023-06-10T09:12:10.571Z,51.26
2023-06-10T09:13:01.529Z,50.48
2023-06-10T09:13:52.475Z,50.43
2023-06-10T09:14:43.958Z,50.03
2023-06-10T09:15:35.095Z,49.74
2023-06-10T09:16:26.655Z,49.99
2023-06-10T09:17:18.262Z,50.44
2023-06-10T09:18:09.572Z,50.67
2023-06-10T09:19:00.578Z,50.49
2023-06-10T09:19:54.836Z,50.11
2023-06-10T09:20:46.759Z,49.59
2023-06-10T09:21:37.461Z,49.35
2023-06-10T09:22:29.315Z,49.55
2023-06-10T09:23:19.986Z,49.27
2023-06-10T09:24:10.775Z,48.69
2023-06-10T09:25:10.285Z,49.65
2023-06-10T09:26:01.316Z,49.80
2023-06-10T09:27:03.049Z,49.30
2023-06-10T09:27:57.791Z,48.53
2023-06-10T09:28:51.749Z,46.91
2023-06-10T09:29:53.549Z,47.36
2023-06-10T09:30:44.587Z,49.01
2023-06-10T09:31:36.847Z,49.00
2023-06-10T09:32:27.957Z,48.05
2023-06-10T09:33:18.898Z,47.45
2023-06-10T09:34:13.938Z,46.72
2023-06-10T09:35:10.575Z,46.38
2023-06-10T09:36:03.497Z,45.84
2023-06-10T09:36:54.443Z,45.76
2023-06-10T09:37:45.575Z,46.73
2023-06-10T09:38:36.929Z,46.87
2023-06-10T09:39:27.946Z,47.60
2023-06-10T09:40:19.152Z,47.76
2023-06-10T09:41:10.027Z,48.66
2023-06-10T09:42:00.965Z,48.37
2023-06-10T09:43:00.242Z,48.10
2023-06-10T09:43:51.323Z,47.10
2023-06-10T09:44:42.277Z,48.05
2023-06-10T09:45:34.170Z,48.43
2023-06-10T09:46:25.407Z,48.14
2023-06-10T09:47:24.140Z,49.03
2023-06-10T09:48:15.026Z,49.51
2023-06-10T09:49:05.800Z,49.85
2023-06-10T09:49:56.587Z,49.39
2023-06-10T09:50:47.719Z,48.87
2023-06-10T09:51:38.736Z,49.05
2023-06-10T09:52:30.622Z,48.45
2023-06-10T09:53:22.082Z,48.84
2023-06-10T09:54:12.927Z,49.04
2023-06-10T09:55:04.514Z,48.70
2023-06-10T09:55:55.502Z,49.40
2023-06-10T09:56:47.849Z,48.85
2023-06-10T09:57:40.210Z,48.50
2023-06-10T09:58:43.322Z,48.48
2023-06-10T09:59:34.804Z,47.94
2023-06-10T10:00:27.073Z,46.22
2023-06-10T10:01:18.134Z,46.51
2023-06-10T10:02:15.918Z,46.71
2023-06-10T10:03:08.120Z,47.18
2023-06-10T10:03:59.267Z,47.02
2023-06-10T10:04:50.222Z,47.54
2023-06-10T10:05:40.998Z,46.53
2023-06-10T10:06:31.820Z,46.05
2023-06-10T10:07:24.690Z,46.61
2023-06-10T10:08:15.884Z,47.46
2023-06-10T10:09:07.213Z,48.12
2023-06-10T10:09:58.198Z,49.31
2023-06-10T10:10:48.888Z,49.05
2023-06-10T10:11:40.465Z,49.07
2023-06-10T10:12:32.078Z,49.38
2023-06-10T10:13:24.744Z,49.21
2023-06-10T10:14:18.296Z,49.52
2023-06-10T10:15:11.939Z,49.41
2023-06-10T10:16:17.684Z,48.76
2023-06-10T10:17:11.985Z,48.62
2023-06-10T10:18:12.350Z,48.59
2023-06-10T10:19:23.847Z,48.64
2023-06-10T10:20:19.795Z,48.74
2023-06-10T10:21:14.761Z,48.14
2023-06-10T10:22:12.101Z,47.93
2023-06-10T10:23:05.121Z,48.17
2023-06-10T10:24:02.653Z,49.00
2023-06-10T10:25:07.077Z,48.35
2023-06-10T10:26:01.438Z,48.14
2023-06-10T10:26:57.376Z,48.73
2023-06-10T10:28:11.087Z,49.64
2023-06-10T10:29:26.286Z,49.24
2023-06-10T10:30:18.758Z,49.73
2023-06-10T10:31:11.923Z,49.05
2023-06-10T10:32:04.733Z,49.19
2023-06-10T10:32:56.310Z,48.71
2023-06-10T10:33:59.213Z,48.87
2023-06-10T10:35:08.850Z,49.67
2023-06-10T10:36:01.419Z,49.35
2023-06-10T10:36:52.555Z,48.95
2023-06-10T10:37:44.041Z,48.65
2023-06-10T10:38:35.638Z,49.06
2023-06-10T10:39:29.233Z,48.76
2023-06-10T10:40:22.801Z,49.02
2023-06-10T10:41:14.402Z,48.25
2023-06-10T10:42:06.788Z,48.61
2023-06-10T10:42:59.447Z,49.16
2023-06-10T10:43:52.688Z,49.08
2023-06-10T10:44:44.384Z,49.02
2023-06-10T10:45:35.734Z,48.66
2023-06-10T10:46:26.566Z,48.34
2023-06-10T10:47:22.849Z,48.10
2023-06-10T10:48:15.663Z,49.01
2023-06-10T10:49:07.757Z,48.77
2023-06-10T10:50:00.574Z,48.88
2023-06-10T10:50:59.057Z,48.73
2023-06-10T10:52:00.417Z,48.50
2023-06-10T10:52:57.653Z,48.46
2023-06-10T10:54:16.575Z,48.69
2023-06-10T10:55:13.873Z,47.86
2023-06-10T10:56:19.698Z,47.72
2023-06-10T10:57:10.231Z,47.50
2023-06-10T10:58:06.566Z,48.19
2023-06-10T10:59:08.071Z,48.59
2023-06-10T11:00:05.899Z,48.19
2023-06-10T11:00:56.878Z,47.65
2023-06-10T11:01:48.130Z,47.95
2023-06-10T11:02:42.993Z,47.35
2023-06-10T11:03:44.563Z,47.04
2023-06-10T11:04:35.969Z,46.78
2023-06-10T11:05:49.081Z,46.24
2023-06-10T11:06:40.484Z,46.61
2023-06-10T11:07:32.828Z,46.66
2023-06-10T11:08:30.025Z,47.18
2023-06-10T11:09:31.395Z,47.07
2023-06-10T11:10:34.089Z,47.01
2023-06-10T11:11:29.774Z,46.90
2023-06-10T11:12:25.135Z,46.59
2023-06-10T11:13:16.807Z,46.74
2023-06-10T11:14:10.821Z,46.56
2023-06-10T11:15:01.921Z,46.04
2023-06-10T11:15:52.663Z,46.09
2023-06-10T11:16:44.927Z,46.32
2023-06-10T11:17:36.281Z,45.59
2023-06-10T11:18:29.281Z,46.05